Airports

 


Airport Name Latest METAR Visual Conditions
Cincinnati/Northern Kentucky International (CVG) KCVG 100752Z 00000KT 3SM BR OVC019 07/06 A3016 RMK AO2 SLP214 T00670061 $ MVFR
John Glenn Columbus International (CMH) KCMH 100751Z 05005KT 10SM OVC018 04/02 A3016 RMK AO2 SLP218 T00390017 MVFR
West Virginia International Yeager (CRW) KCRW 100754Z 21003KT 1/2SM -RA FG BKN001 BKN003 OVC011 09/09 A3014 RMK AO2 SLP207 P0001 T00940094 LIFR
James M Cox Dayton International (DAY) KDAY 100756Z 01006KT 4SM BR OVC008 04/02 A3018 RMK AO2 SLP225 T00390022 IFR
Evansville Regional (EVV) KEVV 100754Z AUTO 00000KT 9SM OVC022 04/03 A3019 RMK AO2 SLP223 T00440028 MVFR
Indianapolis International (IND) KIND 100754Z 07008KT 5SM BR OVC007 05/04 A3016 RMK AO2 SLP218 T00500039 $ IFR
Blue Grass (LEX) KLEX 100754Z 21003KT 1/4SM R04/1000V2400FT FG VV001 04/02 A3016 RMK AO2 SLP215 T00390017 LIFR
Louisville Muhammad Ali International (SDF) KSDF 100756Z 00000KT 1/2SM FG VV001 08/08 A3017 RMK AO2 SLP216 T00830083 RVRNO $ LIFR
Anderson Municipal-Darlington Fld (AID) KAID 100755Z AUTO 08004KT 5SM BR OVC006 03/01 A3019 RMK AO2 T00270007 IFR
Columbus Municipal (BAK) KBAK 100245Z 00000KT 1/4SM FG OVC001 07/06 A3015 RMK LAST LIFR
Monroe County (BMG) KBMG 100753Z AUTO 09004KT 1/2SM FG BKN003 OVC009 08/07 A3015 RMK AO2 SLP210 T00780072 $ LIFR
Wright-Patterson Air Force Base (FFO) KFFO 100755Z 01005KT 10SM OVC008 04/03 A3015 RMK AO2A SLP218 T00390029 IFR
Godman Army Airfield (FTK) KFTK 100755Z AUTO 00000KT 7/8SM R18/4500V5000FT BR VV002 07/07 A3015 RMK AO2 SLP214 T00740073 FZRANO $ LIFR
Himsel Army Airfield (HBE) No weather for this Airport Unknown
Tri-State/Milton J Ferguson Fld (HTS) KHTS 100751Z 25003KT 10SM FEW009 SCT019 OVC036 10/08 A3014 RMK AO2 SLP206 T01000083 VFR
Terre Haute Regional (HUF) KHUF 100753Z 00000KT 4SM BR OVC004 06/05 A3016 RMK AO2 SLP216 T00560050 LIFR
Wilmington Air Park (ILN) KILN 100754Z AUTO 01005KT 3SM BR OVC008 06/04 A3016 RMK AO2 SLP228 T00560039 IFR
Rickenbacker International (LCK) KLCK 100755Z AUTO 02004KT 10SM OVC018 04/03 A3017 RMK AO2 T00420025 MVFR
Bowman Fld (LOU) KLOU 100753Z AUTO 00000KT 1/4SM FG VV002 08/08 A3016 RMK AO2 SLP214 T00780078 LIFR
Cincinnati Municipal/Lunken Fld (LUK) KLUK 100753Z AUTO 00000KT 3SM BR OVC024 08/06 A3019 RMK AO2 SLP223 T00780061 MVFR
Delaware County Regional (MIE) KMIE 100753Z AUTO 09005KT 4SM BR OVC005 03/01 A3019 RMK AO2 SLP224 T00330011 IFR
Ohio State University (OSU) KOSU 100753Z AUTO 03003KT 10SM OVC017 04/02 A3017 RMK AO2 SLP218 T00440017 MVFR
Owensboro/Daviess County Regional (OWB) KOWB 100756Z AUTO 31006KT 10SM OVC013 07/06 A3018 RMK AO2 SLP223 T00720056 PNO $ MVFR
Mid-Ohio Valley Regional (PKB) KPKB 100753Z AUTO 33004KT 10SM OVC015 07/03 A3014 RMK AO2 SLP208 T00670028 MVFR
Bolton Fld (TZR) KTZR 100735Z AUTO 03003KT 10SM OVC015 04/02 A3017 RMK AO2 T00380020 MVFR
Brazil Clay County (0I2) No weather for this Airport Unknown
Cynthiana-Harrison County (0I8) No weather for this Airport Unknown
Fry (0OH8) No weather for this Airport Unknown
Holmes County (10G) No weather for this Airport Unknown
Fayette County Meml Hospital (11OH) No weather for this Airport Unknown
Ona Airpark (12V) No weather for this Airport Unknown
Mc Creary County (18I) No weather for this Airport Unknown
Middlesboro/Bell County (1A6) K1A6 100755Z AUTO 00000KT 1/2SM FG OVC003 10/10 A3016 RMK AO2 T01010101 LIFR
Casey Municipal (1H8) No weather for this Airport Unknown
Georgetown-Scott County Regional (27K) K27K 100755Z AUTO 00000KT 1/4SM OVC002 05/05 A3017 RMK AO1 LIFR
Jamestown Municipal (2A1) No weather for this Airport Unknown
Madisonville Regional (2I0) K2I0 100755Z AUTO 35005KT 10SM OVC009 09/06 A3018 RMK AO2 T00870063 IFR
Hendricks County-Gordon Graham Fld (2R2) No weather for this Airport Unknown
Uk Hospital (37KY) No weather for this Airport Unknown
Mason County (3I2) K3I2 100755Z AUTO 00000KT 10SM OVC012 08/08 A3017 RMK AO2 T00820082 MVFR
Sky King (3I3) No weather for this Airport Unknown
Dayton/Phillipsburg (3I7) No weather for this Airport Unknown
Andy Barnhart Meml (3OH0) No weather for this Airport Unknown
Red Stewart Airfield (40I) No weather for this Airport Unknown
Medical Center Albany (45KY) No weather for this Airport Unknown
Westlake Regional Hospital (48KY) No weather for this Airport Unknown
Knox County (4I3) K4I3 100755Z AUTO 03005KT 10SM OVC008 02/01 A3017 RMK AO2 IFR
Morrow County (4I9) No weather for this Airport Unknown
Manchester Meml Hospital (4KY2) No weather for this Airport Unknown
Genesis Health Care (4OH2) No weather for this Airport Unknown
Appalachian Regional Hospital (51KY) No weather for this Airport Unknown
Iu Health Bedford Hospital (57IN) No weather for this Airport Unknown
Sheridan (5I4) No weather for this Airport Unknown
Union Hospital (60II) No weather for this Airport Unknown
Lebanon Springfield-George Hoerter Fld (6I2) K6I2 100735Z AUTO 17003KT M1/4SM FG OVC001 05/05 A3016 RMK AO2 LIFR
Logan County (6L4) K6L4 100755Z AUTO 00000KT 3SM BR BKN003 BKN006 OVC017 09/09 A3014 RMK AO2 LIFR
Lucas Fld (79KY) No weather for this Airport Unknown
Skydive Greene County Inc (7OA7) No weather for this Airport Unknown
Methodist Hospital Of In Inc (81II) No weather for this Airport Unknown
St Joseph Hospital (88KY) No weather for this Airport Unknown
Livingston Municipal (8A3) K8A3 100755Z AUTO 00000KT 1/4SM FG SCT004 BKN012 OVC026 09/08 A3015 RMK A01 LIFR
Indianapolis Downtown (8A4) No weather for this Airport Unknown
Riverside Methodist Hospital (9OI9) No weather for this Airport Unknown
Kee Fld (I16) KI16 021801Z AUTO 10SM SCT100 12/01 A3036 RMK AO2 VFR
Piqua/Hartzell Fld (I17) No weather for this Airport Unknown
Jackson County (I18) No weather for this Airport Unknown
Greene County/Lewis A Jackson Regional (I19) KI19 100755Z AUTO 00000KT 2 1/2SM BR OVC007 04/04 A3016 RMK AO2 VIS 2V3 IFR
Randolph County (I22) No weather for this Airport Unknown
Fayette County (I23) KI23 100755Z AUTO 01004KT 7SM SCT007 OVC014 04/03 A3016 RMK AO1 MVFR
Greensburg Municipal (I34) No weather for this Airport Unknown
Tucker-Guthrie Meml (I35) KI35 100755Z AUTO 00000KT 10SM BKN014 12/12 A3015 RMK AO2 T01200120 MVFR
Richard Downing (I40) No weather for this Airport Unknown
Dahio Trotwood (I44) No weather for this Airport Unknown
Mad River Airpark (I54) No weather for this Airport Unknown
Clinton Fld (I66) No weather for this Airport Unknown
Cincinnati West (I67) KI67 100755Z AUTO 00000KT 4SM OVC006 06/05 A3019 RMK AO1 IFR
Warren County/John Lane Fld (I68) No weather for this Airport Unknown
Clermont County (I69) KI69 100755Z AUTO 00000KT 4SM BR BKN005 BKN010 OVC020 07/06 A3018 RMK AO2 T00680060 IFR
Moraine Air Park (I73) No weather for this Airport Unknown
Grimes Fld (I74) KI74 100755Z AUTO 01004KT 5SM BR OVC007 02/02 A3018 RMK AO2 IFR
Perry County (I86) No weather for this Airport Unknown
Breckinridge County (I93) No weather for this Airport Unknown
Hardin County (I95) No weather for this Airport Unknown
Alexandria (I99) No weather for this Airport Unknown
Decatur County Meml Hospital (IN35) No weather for this Airport Unknown
Reid Hospital (IN68) No weather for this Airport Unknown
Ball Meml Hospital (IN74) No weather for this Airport Unknown
Iu Health Morgan (IN84) No weather for this Airport Unknown
Russell County (K24) No weather for this Airport Unknown
Gene Snyder (K62) No weather for this Airport Unknown
Hancock County/Ron Lewis Fld (KY8) KKY8 100755Z AUTO 00000KT 6SM BR OVC007 08/08 A3018 RMK A01 IFR
Leitchfield-Grayson County (M20) No weather for this Airport Unknown
Grant Medical Center (OH01) No weather for this Airport Unknown
Knox Communicipalty Hospital (OH04) No weather for this Airport Unknown
Ohiohealth O'Bleness Hospital (OH23) No weather for this Airport Unknown
Schaney'S Lair (OH46) No weather for this Airport Unknown
Southern Ohio Regional Medical Center (OH62) No weather for this Airport Unknown
Troy Skypark (OH71) No weather for this Airport Unknown
Nationwide Children'S Hospital (OI95) No weather for this Airport Unknown
Taylor County (AAS) KAAS 100755Z AUTO 00000KT M1/4SM OVC001 07/07 A3021 RMK AO1 LIFR
Mount Carmel Municipal (AJG) KAJG 100755Z AUTO 28003KT 3SM BR CLR 02/01 A3018 RMK AO2 T00160012 MVFR
Alexander Salamon (AMT) No weather for this Airport Unknown
Lima Allen County (AOH) No weather for this Airport Unknown
Neil Armstrong (AXV) KAXV 100755Z AUTO 04006KT 7SM OVC008 02/01 A3019 RMK AO2 IFR
Virgil I Grissom Municipal (BFR) No weather for this Airport Unknown
Raleigh County Meml (BKW) KBKW 100751Z AUTO 15005KT 1 3/4SM BR OVC005 06/05 A3015 RMK AO2 SLP216 T00610050 IFR
Mercer County (BLF) KBLF 100750Z AUTO 00000KT 1 3/4SM -RA BR BKN004 OVC010 05/05 A3015 RMK AO2 CIG 003V008 SLP212 P0003 T00500050 LIFR
Samuels Fld (BRY) KBRY 100755Z AUTO 00000KT 1/4SM FG VV001 08/08 A3015 RMK AO2 T00810081 LIFR
Williamsburg-Whitley County (BYL) KBYL 100755Z AUTO 31003KT 10SM BKN007 10/10 A3016 RMK AO1 IFR
Mettel Fld (CEV) No weather for this Airport Unknown
Crawfordsville Regional (CFJ) KCFJ 062035Z AUTO 04004KT 10SM OVC014 07/02 A2997 RMK AO2 T00680016 MVFR
Wendell H Ford (CPF) No weather for this Airport Unknown
Lakefield (CQA) No weather for this Airport Unknown
Carmi Municipal (CUL) No weather for this Airport Unknown
Pickaway County Meml (CYO) No weather for this Airport Unknown
Daviess County (DCY) KDCY 092010Z AUTO 00000KT 3SM DZ OVC003 A3008 RMK AO2 LIFR
Delaware Municipal/Jim Moore Fld (DLZ) No weather for this Airport Unknown
Stuart Powell Fld (DVK) KDVK 100735Z AUTO 00000KT 1/2SM FG OVC002 05/05 A3017 RMK AO2 LIFR
Ashland Regional (DWU) No weather for this Airport Unknown
Appalachian Regional (EBD) No weather for this Airport Unknown
Bellefontaine Regional (EDJ) No weather for this Airport Unknown
Henderson City-County (EHR) KEHR 100756Z AUTO 00000KT 9SM CLR 03/02 A3019 RMK AO2 SLP225 T00280022 VFR
Wayne County (EKQ) No weather for this Airport Unknown
Addington Fld (EKX) No weather for this Airport Unknown
Pike County (EOP) No weather for this Airport Unknown
Eagle Creek Airpark (EYE) No weather for this Airport Unknown
Capital City (FFT) No weather for this Airport Unknown
Fleming-Mason (FGX) KFGX 100755Z AUTO 00000KT 7SM SCT007 OVC016 07/06 A3018 RMK AO2 T00690059 MVFR
French Lick Municipal (FRH) No weather for this Airport Unknown
Gallia-Meigs Regional (GAS) No weather for this Airport Unknown
Brown County (GEO) No weather for this Airport Unknown
Shelbyville Municipal (GEZ) No weather for this Airport Unknown
Putnam County Regional (GPC) KGPC 100735Z AUTO 08006KT 1/2SM FG OVC002 05/05 A3016 RMK AO2 T00550054 LIFR
Butler County Regional/Hogan Fld (HAO) No weather for this Airport Unknown
Indy South Greenwood (HFY) KHFY 100755Z AUTO 07003KT 4SM OVC004 06/06 A3018 RMK AO2 T00600055 LIFR
Batesville (HLB) No weather for this Airport Unknown
Huntingburg (HNB) KHNB 100756Z AUTO 31003KT 7SM BKN024 05/04 A3018 RMK AO2 SLP222 T00500044 MVFR
Highland County (HOC) No weather for this Airport Unknown
Madison Municipal (IMS) No weather for this Airport Unknown
Mount Sterling/Montgomery County (IOB) KIOB 100755Z AUTO 00000KT 1/4SM OVC002 03/03 A3018 RMK AO2 PWINO LIFR
Julian Carroll (JKL) No weather for this Airport Unknown
Ohio County (JQD) No weather for this Airport Unknown
James A Rhodes (JRO) No weather for this Airport Unknown
Clark Regional (JVY) KJVY 100735Z AUTO 00000KT 1 1/2SM BR OVC003 08/08 A3017 RMK AO2 LIFR
Fairfield County (LHQ) KLHQ 100753Z AUTO 00000KT 10SM BKN015 OVC041 04/03 A3016 RMK AO2 SLP217 T00440028 MVFR
Lonesome Pine (LNP) No weather for this Airport Unknown
London/Corbin/Magee (LOZ) KLOZ 100753Z AUTO 34006KT 10SM FEW007 BKN018 BKN034 10/09 A3016 RMK AO2 SLP210 T01000094 MVFR
Lawrenceville-Vincennes International (LWV) No weather for this Airport Unknown
Dayton-Wright Brothers (MGY) KMGY 100753Z AUTO 02004KT 4SM BR OVC006 05/04 A3016 RMK AO2 SLP218 T00500039 IFR
Indianapolis Regional (MQJ) No weather for this Airport Unknown
Union County (MRT) KMRT 100755Z AUTO 03005KT 7SM OVC008 03/02 A3018 RMK AO2 T00270016 IFR
Middletown Regional/Hook Fld (MWO) KMWO 100735Z AUTO 01004KT 3 1/2SM BR OVC008 05/05 A3019 RMK AO2 T00530050 IFR
North Vernon (OVO) No weather for this Airport Unknown
Miami University (OXD) KOXD 100659Z AUTO 00000KT 2 1/2SM BR OVC003 07/06 A3016 RMK AO2 LIFR
Pike County/Hatcher Fld (PBX) KPBX 100735Z AUTO 31005KT 5SM BR OVC004 09/09 A3014 RMK AO2 T00940094 LIFR
Greater Portsmouth Regional (PMH) KPMH 100755Z AUTO 00000KT 7SM SCT026 OVC038 09/07 A3016 RMK AO2 T00910068 VFR
Edgar County (PRG) No weather for this Airport Unknown
Central Kentucky Regional (RGA) KRGA 100735Z AUTO 20004KT 7SM CLR 07/07 A3017 RMK AO2 VFR
Richmond Municipal (RID) KRID 100755Z AUTO 02003KT 3SM BR OVC004 02/02 A3018 RMK AO2 LIFR
Crawford County (RSV) KRSV 100755Z AUTO 00000KT 3SM BR CLR 00/00 A3018 RMK AO2 T00000000 MVFR
Ross County (RZT) KRZT 100755Z AUTO 35004KT 10SM OVC013 05/05 A3017 RMK AO2 PWINO MVFR
Sidney Municipal (SCA) No weather for this Airport Unknown
Scott Municipal (SCX) KSCX 100755Z AUTO 00000KT 10SM OVC024 09/08 A3015 RMK A01 MVFR
Freeman Municipal (SER) No weather for this Airport Unknown
Springfield/Beckley Municipal (SGH) No weather for this Airport Unknown
Sullivan County (SIV) No weather for this Airport Unknown
Big Sandy Regional (SJS) KSJS 100735Z AUTO 00000KT 10SM OVC011 09/09 A3016 RMK AO2 T00930093 MVFR
Lake Cumberland Regional (SME) No weather for this Airport Unknown
Summersville (SXL) No weather for this Airport Unknown
Morehead-Rowan County Clyde A Thomas Regional (SYM) KSYM 100755Z AUTO 31006KT 2SM BR OVC003 08/07 A3017 RMK AO2 LIFR
Perry County Municipal (TEL) No weather for this Airport Unknown
Sturgis Municipal (TWT) No weather for this Airport Unknown
Indianapolis Exec (TYQ) KTYQ 100755Z AUTO 09005KT 3SM BR OVC005 03/02 A3018 RMK AO2 T00250020 IFR
Indianapolis Metro (UMP) No weather for this Airport Unknown
Ohio University (UNI) KUNI 100735Z AUTO 00000KT 10SM OVC013 06/06 A3015 RMK AO2 T00590059 MVFR
Boggs Fld (USW) No weather for this Airport Unknown
New Castle Henry County Marlatt Fld (UWL) No weather for this Airport Unknown
Madison County (UYF) KUYF 100735Z AUTO 01005KT 10SM OVC012 03/02 A3016 RMK AO2 MVFR
Darke County (VES) KVES 100730Z AUTO 04004KT 5SM BR OVC007 02/02 A3018 RMK AO2 IFR
Newark-Heath (VTA) KVTA 100754Z AUTO 00000KT 10SM BKN018 OVC023 04/01 A3016 RMK AO2 SLP218 T00390011 $ MVFR
Zanesville Municipal (ZZV) KZZV 100753Z AUTO 00000KT 10SM SCT010 OVC036 04/02 A3016 RMK AO2 SLP216 T00390017 VFR